Track Краснояров Еагений

Time Latitude Longitude Accuracy (66% radius in meters) Altitude (meters) Speed (km/hour) Bearing (degrees) Battery (%) GPS flag
11:08:47 56.387542 43.737100 4.9000000953674 71.3 0 99.790000915527 70 1 delete
11:08:41 56.387518 43.737085 4.8000001907349 70.9 0 214.08999633789 70 1 delete
11:08:37 56.387573 43.737112 4.6999998092651 70.3 0 219.72999572754 70 1 delete
11:08:25 56.387640 43.737183 4.5999999046326 71.1 0 216.08999633789 70 1 delete
11:08:15 56.387640 43.737183 4.4000000953674 71.1 0 216.08999633789 70 1 delete
11:08:05 56.387678 43.737127 4.5 71.9 0 13.239999771118 70 1 delete
11:07:55 56.387678 43.737127 4.6999998092651 71.9 0 13.239999771118 70 1 delete
11:07:44 56.387633 43.737058 5.4000000953674 72.4 0 341.60000610352 70 1 delete
11:07:35 56.387662 43.737157 5.5999999046326 74 0 96.580001831055 70 1 delete
11:07:24 56.387662 43.737157 6 74 0 96.580001831055 70 1 delete
11:07:13 56.387638 43.737147 5.8000001907349 74.4 0 78.319999694824 70 1 delete
11:07:12 56.387625 43.737133 5.9000000953674 74.4 0 85.26000213623 70 1 delete
11:07:04 56.387512 43.737070 6.6999998092651 74.3 0 183.69000244141 70 1 delete
11:07:01 56.387543 43.737063 5.9000000953674 74.4 0 186.94000244141 70 1 delete
11:06:52 56.387633 43.737057 4.0999999046326 76.2 0 271.67001342773 70 1 delete
11:06:47 56.387633 43.737057 4.3000001907349 76.2 0 271.67001342773 70 1 delete
11:06:43 56.387632 43.737068 4.0999999046326 76.6 0 329.16000366211 70 1 delete
11:06:31 56.387642 43.737123 3.7000000476837 77.5 0 217.05000305176 70 1 delete
11:06:19 56.387670 43.737135 3.9000000953674 77.2 0 41.770000457764 72 1 delete
11:06:09 56.387643 43.737103 3.7999999523163 76.7 0 173.0299987793 72 1 delete
11:05:58 56.387647 43.737103 3.7999999523163 77.1 0 24.319999694824 72 1 delete
11:05:49 56.387643 43.737087 4 77.1 0 84.809997558594 72 1 delete
11:05:39 56.387618 43.737080 3.9000000953674 77.3 0 285.10000610352 72 1 delete
11:05:27 56.387618 43.737080 4 77.3 0 285.10000610352 72 1 delete
11:05:17 56.387597 43.737135 4.0999999046326 76.1 0 197.47999572754 72 1 delete
11:05:05 56.387597 43.737135 4.0999999046326 76.1 0 197.47999572754 72 1 delete
11:04:55 56.387597 43.737135 4.3000001907349 75.9 0 299.67999267578 72 1 delete
11:04:45 56.387622 43.737150 4.5 74.1 0 182.60000610352 72 1 delete
11:04:35 56.387622 43.737150 4.4000000953674 74.1 0 182.60000610352 72 1 delete
11:04:25 56.387630 43.737148 4.5 74 0 195.69999694824 72 1 delete
11:04:14 56.387697 43.737180 4.9000000953674 73.3 0 180.71000671387 72 1 delete
11:04:03 56.387613 43.737168 5 74.4 0 158.78999328613 72 1 delete
11:03:53 56.387613 43.737168 5 74.4 0 158.78999328613 72 1 delete
11:03:43 56.387613 43.737168 5.0999999046326 74.4 0 158.78999328613 72 1 delete
11:03:33 56.387633 43.737208 5.1999998092651 73.9 0 47.229999542236 72 1 delete
11:03:31 56.387635 43.737227 5.3000001907349 73.7 0 15.869999885559 72 1 delete
11:03:23 56.387552 43.737152 5.5 73 0 108.19000244141 72 1 delete
11:03:17 56.387570 43.737113 5.5 72.6 0 307.58999633789 72 1 delete
11:03:13 56.387670 43.737165 5.4000000953674 71.6 0 143.66999816895 72 1 delete
11:03:01 56.387670 43.737165 5 71.6 0 143.66999816895 72 1 delete
11:02:51 56.387670 43.737165 4.9000000953674 71.6 0 143.66999816895 72 1 delete
11:02:41 56.387667 43.737152 4.9000000953674 71.8 0 137.02000427246 72 1 delete
11:02:31 56.387690 43.737142 4.9000000953674 73.2 0 144.9700012207 72 1 delete
11:02:21 56.387690 43.737142 4.8000001907349 73.2 0 144.9700012207 72 1 delete
11:02:10 56.387762 43.737062 4.9000000953674 73.9 0 341.83999633789 72 1 delete
11:02:00 56.387735 43.737097 5 74.7 0 321.48001098633 72 1 delete
11:01:49 56.387785 43.737073 5 79.2 0 332.39999389648 72 1 delete
11:01:39 56.387785 43.737073 4.9000000953674 79.2 0 332.39999389648 72 1 delete
11:01:29 56.387785 43.737073 4.8000001907349 79.2 0 332.39999389648 72 1 delete
11:01:19 56.387785 43.737073 4.9000000953674 79.2 0 332.39999389648 72 1 delete